| time (UTC) | temp F | wind direction | speed MPH | gust MPH | rain 1hr in | rain 24hr in | rain mn in | humidity % | barometer mb |
| 20260903144036 | 0 | 0.0 | 0.0 | 0.00 | 0.21 | 0.21 | 1011.1 | ||
| 20260903143532 | 0 | 0.0 | 0.0 | 0.00 | 0.21 | 0.21 | 1010.9 | ||
| 20260903143027 | 0 | 0.0 | 0.0 | 0.00 | 0.21 | 0.21 | 1011.1 | ||
| 20260903142522 | 0 | 0.0 | 0.0 | 0.00 | 0.21 | 0.21 | 1010.9 | ||
| 20260903142020 | 0 | 0.0 | 0.0 | 0.00 | 0.21 | 0.21 | 1011.0 | ||
| 20260903141515 | 0 | 0.0 | 0.0 | 0.02 | 0.21 | 0.21 | 1011.2 | ||
| 20260903141010 | 0 | 0.0 | 0.0 | 0.02 | 0.21 | 0.21 | 1011.1 | ||
| 20260903140505 | 0 | 0.0 | 0.0 | 0.00 | 0.20 | 0.20 | 1011.0 | ||
| 20260903140000 | 0 | 0.0 | 0.0 | 0.00 | 0.20 | 0.20 | 1011.0 | ||
| 20260903135456 | 0 | 0.0 | 0.0 | 0.02 | 0.20 | 0.20 | 1011.1 | ||
| 20260903134950 | 0 | 0.0 | 0.0 | 0.00 | 0.20 | 0.20 | 1010.9 | ||
| 20260903134449 | 0 | 0.0 | 0.0 | 0.00 | 0.20 | 0.20 | 1010.8 | ||
| 20260903133947 | 0 | 0.0 | 0.0 | 0.00 | 0.20 | 0.20 | 1010.8 | ||
| 20260903133444 | 0 | 0.0 | 0.0 | 0.02 | 0.20 | 0.20 | 1010.8 | ||
| 20260903132938 | 0 | 0.0 | 0.0 | 0.02 | 0.20 | 0.20 | 1010.9 | ||
| 20260903132434 | 0 | 0.0 | 0.0 | 0.00 | 0.20 | 0.20 | 1010.8 | ||
| 20260903131933 | 0 | 0.0 | 0.0 | 0.00 | 0.20 | 0.20 | 1010.7 | ||
| 20260903131429 | 0 | 0.0 | 0.0 | 0.00 | 0.20 | 0.20 | 1010.7 | ||
| 20260903130927 | 0 | 0.0 | 0.0 | 0.00 | 0.20 | 0.20 | 1010.6 | ||
| 20260903130423 | 0 | 0.0 | 0.0 | 0.00 | 0.20 | 0.20 | 1010.4 | ||
| 20260903125922 | 0 | 0.0 | 0.0 | 0.00 | 0.20 | 0.20 | 1010.7 | ||
| 20260903125422 | 0 | 0.0 | 0.0 | 0.02 | 0.20 | 0.20 | 1010.2 | ||
| 20260903124921 | 0 | 0.0 | 0.0 | 0.02 | 0.19 | 0.19 | 1010.5 | ||
| 20260903124416 | 0 | 0.0 | 0.0 | 0.05 | 0.19 | 0.19 | 1010.5 | ||
| 20260903123915 | 0 | 0.0 | 0.0 | 0.07 | 0.19 | 0.19 | 1010.5 | ||
| 20260903123410 | 0 | 0.0 | 0.0 | 0.07 | 0.18 | 0.18 | 1010.5 | ||
| 20260903122909 | 0 | 0.0 | 0.0 | 0.09 | 0.18 | 0.18 | 1010.5 | ||
| 20260903122403 | 0 | 0.0 | 0.0 | 0.09 | 0.17 | 0.17 | 1010.4 | ||
| 20260903121902 | 0 | 0.0 | 0.0 | 0.07 | 0.16 | 0.16 | 1010.3 | ||
| 20260903121357 | 0 | 0.0 | 0.0 | 0.02 | 0.15 | 0.15 | 1010.2 | ||
| 20260903120854 | 0 | 0.0 | 0.0 | 0.02 | 0.15 | 0.15 | 1010.4 | ||
| 20260903120352 | 0 | 0.0 | 0.0 | 0.05 | 0.15 | 0.15 | 1010.4 | ||
| 20260903115851 | 0 | 0.0 | 0.0 | 0.05 | 0.14 | 0.14 | 1010.3 | ||
| 20260903115345 | 0 | 0.0 | 0.0 | 0.05 | 0.14 | 0.14 | 1010.3 | ||
| 20260903114840 | 0 | 0.0 | 0.0 | 0.05 | 0.13 | 0.13 | 1010.2 | ||
| 20260903114336 | 0 | 0.0 | 0.0 | 0.05 | 0.13 | 0.13 | 1010.4 | ||
| 20260903113831 | 0 | 0.0 | 0.0 | 0.02 | 0.13 | 0.13 | 1010.2 | ||
| 20260903113327 | 0 | 0.0 | 0.0 | 0.00 | 0.12 | 0.12 | 1010.2 | ||
| 20260903112822 | 0 | 0.0 | 0.0 | 0.00 | 0.12 | 0.12 | 1010.2 | ||
| 20260903112318 | 0 | 0.0 | 0.0 | 0.02 | 0.12 | 0.12 | 1010.4 | ||
| 20260903111817 | 0 | 0.0 | 0.0 | 0.05 | 0.12 | 0.12 | 1010.4 | ||
| 20260903111312 | 0 | 0.0 | 0.0 | 0.05 | 0.12 | 0.12 | 1010.3 | ||
| 20260903110808 | 0 | 0.0 | 0.0 | 0.00 | 0.11 | 0.11 | 1010.2 | ||
| 20260903110303 | 0 | 0.0 | 0.0 | 0.02 | 0.11 | 0.11 | 1010.1 | ||
| 20260903105803 | 0 | 0.0 | 0.0 | 0.02 | 0.11 | 0.11 | 1010.2 | ||
| 20260903105258 | 0 | 0.0 | 0.0 | 0.00 | 0.11 | 0.11 | 1010.2 | ||
| 20260903104758 | 0 | 0.0 | 0.0 | 0.00 | 0.11 | 0.11 | 1010.2 | ||
| 20260903104253 | 0 | 0.0 | 0.0 | 0.02 | 0.11 | 0.11 | 1010.1 | ||
| 20260903103749 | 0 | 0.0 | 0.0 | 0.05 | 0.11 | 0.11 | 1010.2 | ||
| 20260903103245 | 0 | 0.0 | 0.0 | 0.05 | 0.10 | 0.10 | 1010.2 | ||
| 20260903102740 | 0 | 0.0 | 0.0 | 0.05 | 0.10 | 0.10 | 1010.0 | ||
| 20260903102240 | 0 | 0.0 | 0.0 | 0.07 | 0.09 | 0.09 | 1010.2 | ||
| 20260903101739 | 0 | 0.0 | 0.0 | 0.07 | 0.09 | 0.09 | 1010.1 | ||
| 20260903101235 | 0 | 0.0 | 0.0 | 0.05 | 0.08 | 0.08 | 1010.2 | ||
| 20260903100730 | 0 | 0.0 | 0.0 | 0.07 | 0.08 | 0.08 | 1010.2 | ||
| 20260903100230 | 0 | 0.0 | 0.0 | 0.09 | 0.07 | 0.07 | 1010.3 | ||
| 20260903095727 | 0 | 0.0 | 0.0 | 0.12 | 0.07 | 0.07 | 1010.2 | ||
| 20260903095222 | 0 | 0.0 | 0.0 | 0.14 | 0.06 | 0.06 | 1010.1 | ||
| 20260903094717 | 0 | 0.0 | 0.0 | 0.14 | 0.05 | 0.05 | 1010.2 | ||
| 20260903094212 | 0 | 0.0 | 0.0 | 0.09 | 0.03 | 0.03 | 1010.3 | ||
| 20260903093707 | 0 | 0.0 | 0.0 | 0.12 | 0.02 | 0.02 | 1010.2 | ||
| 20260903093203 | 0 | 0.0 | 0.0 | 0.05 | 0.01 | 0.01 | 1010.2 | ||
| 20260903092657 | 0 | 0.0 | 0.0 | 0.00 | 0.00 | 0.00 | 1010.0 | ||
| 20260903092151 | 0 | 0.0 | 0.0 | 0.00 | 0.00 | 0.00 | 1010.0 | ||
| 20260903091650 | 0 | 0.0 | 0.0 | 0.00 | 0.00 | 0.00 | 1010.0 | ||
| 20260903091144 | 0 | 0.0 | 0.0 | 0.00 | 0.00 | 0.00 | 1010.1 | ||
| 20260903090640 | 0 | 0.0 | 0.0 | 0.00 | 0.00 | 0.00 | 1010.0 | ||
| 20260903090139 | 0 | 0.0 | 0.0 | 0.00 | 0.00 | 0.00 | 1010.1 | ||
| 20260903085637 | 0 | 0.0 | 0.0 | 0.00 | 0.00 | 0.00 | 1010.2 | ||
| 20260903085133 | 0 | 0.0 | 0.0 | 0.00 | 0.00 | 0.00 | 1009.9 | ||
| 20260903084630 | 0 | 0.0 | 0.0 | 0.00 | 0.00 | 0.00 | 1010.2 | ||
| 20260903084126 | 0 | 0.0 | 0.0 | 0.00 | 0.00 | 0.00 | 1010.1 | ||
| 20260903083621 | 0 | 0.0 | 0.0 | 0.00 | 0.00 | 0.00 | 1010.2 | ||
| 20260903083115 | 0 | 0.0 | 0.0 | 0.00 | 0.00 | 0.00 | 1010.0 | ||
| 20260903082610 | 0 | 0.0 | 0.0 | 0.02 | 0.00 | 0.00 | 1009.9 | ||
| 20260903082106 | 0 | 0.0 | 0.0 | 0.00 | 0.00 | 0.00 | 1009.9 | ||
| 20260903081601 | 0 | 0.0 | 0.0 | 0.00 | 0.00 | 0.00 | 1010.0 | ||
| 20260903081056 | 0 | 0.0 | 0.0 | 0.00 | 0.00 | 0.00 | 1009.8 | ||
| 20260903080552 | 0 | 0.0 | 0.0 | 0.00 | 0.00 | 0.00 | 1009.8 | ||
| 20260903080049 | 0 | 0.0 | 0.0 | 0.00 | 0.00 | 0.00 | 1009.9 | ||
| 20260903075543 | 0 | 0.0 | 0.0 | 0.00 | 0.00 | 0.00 | 1010.0 | ||
| 20260903075039 | 0 | 0.0 | 0.0 | 0.00 | 0.00 | 0.00 | 1010.1 | ||
| 20260903074538 | 0 | 0.0 | 0.0 | 0.00 | 0.00 | 0.00 | 1010.0 | ||
| 20260903074033 | 0 | 0.0 | 0.0 | 0.00 | 0.00 | 0.00 | 1009.9 | ||
| 20260903073528 | 0 | 0.0 | 0.0 | 0.00 | 0.00 | 0.00 | 1009.8 | ||
| 20260903073024 | 0 | 0.0 | 0.0 | 0.00 | 0.00 | 0.00 | 1009.9 | ||
| 20260903072520 | 0 | 0.0 | 0.0 | 0.00 | 0.00 | 0.00 | 1009.7 | ||
| 20260903072016 | 0 | 0.0 | 0.0 | 0.00 | 0.00 | 0.00 | 1009.8 | ||
| 20260903071512 | 0 | 0.0 | 0.0 | 0.00 | 0.00 | 0.00 | 1009.8 | ||
| 20260903071013 | 0 | 0.0 | 0.0 | 0.00 | 0.00 | 0.00 | 1009.7 | ||
| 20260903070512 | 0 | 0.0 | 0.0 | 0.00 | 0.00 | 0.00 | 1009.9 | ||
| 20260903070008 | 0 | 0.0 | 0.0 | 0.00 | 0.21 | 0.21 | 1009.7 | ||
| 20260903065502 | 0 | 0.0 | 0.0 | 0.00 | 0.21 | 0.21 | 1010.0 | ||
| 20260903065001 | 0 | 0.0 | 0.0 | 0.00 | 0.21 | 0.21 | 1009.7 | ||
| 20260903064456 | 0 | 0.0 | 0.0 | 0.00 | 0.21 | 0.21 | 1009.8 | ||
| 20260903063952 | 0 | 0.0 | 0.0 | 0.00 | 0.21 | 0.21 | 1009.9 | ||
| 20260903063447 | 0 | 0.0 | 0.0 | 0.00 | 0.21 | 0.21 | 1009.7 | ||
| 20260903062942 | 0 | 0.0 | 0.0 | 0.00 | 0.21 | 0.21 | 1009.9 | ||
| 20260903062437 | 0 | 0.0 | 0.0 | 0.00 | 0.21 | 0.21 | 1009.9 | ||
| 20260903061933 | 0 | 0.0 | 0.0 | 0.00 | 0.21 | 0.21 | 1009.8 | ||
| 20260903061432 | 0 | 0.0 | 0.0 | 0.00 | 0.21 | 0.21 | 1010.1 | ||
| 20260903060927 | 0 | 0.0 | 0.0 | 0.00 | 0.21 | 0.21 | 1010.0 | ||
| 20260903060422 | 0 | 0.0 | 0.0 | 0.00 | 0.21 | 0.21 | 1009.9 | ||
| 20260903055920 | 0 | 0.0 | 0.0 | 0.00 | 0.21 | 0.21 | 1009.8 | ||
| 20260903055419 | 0 | 0.0 | 0.0 | 0.00 | 0.21 | 0.21 | 1009.8 | ||
| 20260903054913 | 0 | 0.0 | 0.0 | 0.00 | 0.21 | 0.21 | 1009.8 | ||
| 20260903054408 | 0 | 0.0 | 0.0 | 0.00 | 0.21 | 0.21 | 1009.9 | ||
| 20260903053904 | 0 | 0.0 | 0.0 | 0.00 | 0.21 | 0.21 | 1009.7 | ||
| 20260903053359 | 0 | 0.0 | 0.0 | 0.00 | 0.21 | 0.21 | 1009.7 | ||
| 20260903052855 | 0 | 0.0 | 0.0 | 0.00 | 0.21 | 0.21 | 1009.9 | ||
| 20260903052350 | 0 | 0.0 | 0.0 | 0.00 | 0.21 | 0.21 | 1009.9 | ||
| 20260903051846 | 0 | 0.0 | 0.0 | 0.00 | 0.21 | 0.21 | 1009.9 | ||
| 20260903051341 | 0 | 0.0 | 0.0 | 0.00 | 0.21 | 0.21 | 1009.7 | ||
| 20260903050836 | 0 | 0.0 | 0.0 | 0.00 | 0.21 | 0.21 | 1009.8 | ||
| 20260903050335 | 0 | 0.0 | 0.0 | 0.00 | 0.21 | 0.21 | 1009.8 | ||
| 20260903045830 | 0 | 0.0 | 0.0 | 0.00 | 0.21 | 0.21 | 1009.8 | ||
| 20260903045326 | 0 | 0.0 | 0.0 | 0.00 | 0.21 | 0.21 | 1009.6 | ||
| 20260903044823 | 0 | 0.0 | 0.0 | 0.00 | 0.21 | 0.21 | 1009.7 | ||
| 20260903044318 | 0 | 0.0 | 0.0 | 0.00 | 0.21 | 0.21 | 1009.7 | ||
| 20260903043814 | 0 | 0.0 | 0.0 | 0.00 | 0.21 | 0.21 | 1009.8 | ||
| 20260903043314 | 0 | 0.0 | 0.0 | 0.00 | 0.21 | 0.21 | 1009.5 | ||
| 20260903042813 | 0 | 0.0 | 0.0 | 0.00 | 0.21 | 0.21 | 1009.5 | ||
| 20260903042308 | 0 | 0.0 | 0.0 | 0.00 | 0.21 | 0.21 | 1009.6 | ||
| 20260903041804 | 0 | 0.0 | 0.0 | 0.00 | 0.21 | 0.21 | 1009.5 | ||
| 20260903041301 | 0 | 0.0 | 0.0 | 0.00 | 0.21 | 0.21 | 1009.4 | ||
| 20260903040801 | 0 | 0.0 | 0.0 | 0.00 | 0.21 | 0.21 | 1009.4 | ||
| 20260903040300 | 0 | 0.0 | 0.0 | 0.00 | 0.21 | 0.21 | 1009.4 | ||
| 20260903035756 | 0 | 0.0 | 0.0 | 0.00 | 0.21 | 0.21 | 1009.3 | ||
| 20260903035251 | 0 | 0.0 | 0.0 | 0.00 | 0.21 | 0.21 | 1009.3 | ||
| 20260903034747 | 0 | 0.0 | 0.0 | 0.00 | 0.21 | 0.21 | 1009.4 | ||
| 20260903034242 | 0 | 0.0 | 0.0 | 0.00 | 0.21 | 0.21 | 1009.1 | ||
| 20260903033737 | 0 | 0.0 | 0.0 | 0.00 | 0.21 | 0.21 | 1009.3 | ||
| 20260903033232 | 0 | 0.0 | 0.0 | 0.00 | 0.21 | 0.21 | 1008.9 | ||
| 20260903032726 | 0 | 0.0 | 0.0 | 0.00 | 0.21 | 0.21 | 1008.9 | ||
| 20260903032222 | 0 | 0.0 | 0.0 | 0.00 | 0.21 | 0.21 | 1008.9 | ||
| 20260903031718 | 0 | 0.0 | 0.0 | 0.00 | 0.21 | 0.21 | 1008.8 | ||
| 20260903031217 | 0 | 0.0 | 0.0 | 0.00 | 0.21 | 0.21 | 1008.9 | ||
| 20260903030713 | 0 | 0.0 | 0.0 | 0.00 | 0.21 | 0.21 | 1008.7 | ||
| 20260903030209 | 0 | 0.0 | 0.0 | 0.00 | 0.21 | 0.21 | 1008.9 | ||
| 20260903025704 | 0 | 0.0 | 0.0 | 0.00 | 0.21 | 0.21 | 1008.6 | ||
| 20260903025159 | 0 | 0.0 | 0.0 | 0.00 | 0.21 | 0.21 | 1008.5 | ||
| 20260903024654 | 0 | 0.0 | 0.0 | 0.00 | 0.21 | 0.21 | 1008.7 | ||
| 20260903024153 | 0 | 0.0 | 0.0 | 0.00 | 0.21 | 0.21 | 1008.4 | ||
| 20260903023649 | 0 | 0.0 | 0.0 | 0.00 | 0.21 | 0.21 | 1008.4 | ||
| 20260903023150 | 0 | 0.0 | 0.0 | 0.00 | 0.21 | 0.21 | 1008.1 | ||
| 20260903022644 | 0 | 0.0 | 0.0 | 0.00 | 0.21 | 0.21 | 1008.2 | ||
| 20260903022143 | 0 | 0.0 | 0.0 | 0.00 | 0.21 | 0.21 | 1008.3 | ||
| 20260903021638 | 0 | 0.0 | 0.0 | 0.00 | 0.21 | 0.21 | 1008.3 | ||
| 20260903021132 | 0 | 0.0 | 0.0 | 0.00 | 0.21 | 0.21 | 1008.2 | ||
| 20260903020627 | 0 | 0.0 | 0.0 | 0.00 | 0.21 | 0.21 | 1007.9 | ||
| 20260903020122 | 0 | 0.0 | 0.0 | 0.00 | 0.21 | 0.21 | 1007.9 | ||
| 20260903015618 | 0 | 0.0 | 0.0 | 0.00 | 0.21 | 0.21 | 1007.8 | ||
| 20260903015112 | 0 | 0.0 | 0.0 | 0.00 | 0.21 | 0.21 | 1007.9 | ||
| 20260903014607 | 0 | 0.0 | 0.0 | 0.00 | 0.21 | 0.21 | 1007.7 | ||
| 20260903014106 | 0 | 0.0 | 0.0 | 0.00 | 0.21 | 0.21 | 1007.8 | ||
| 20260903013601 | 0 | 0.0 | 0.0 | 0.00 | 0.21 | 0.21 | 1007.7 | ||
| 20260903013056 | 0 | 0.0 | 0.0 | 0.00 | 0.21 | 0.21 | 1007.6 | ||
| 20260903012555 | 0 | 0.0 | 0.0 | 0.00 | 0.21 | 0.21 | 1007.6 | ||
| 20260903012048 | 0 | 0.0 | 0.0 | 0.00 | 0.21 | 0.21 | 1007.8 | ||
| 20260903011543 | 0 | 0.0 | 0.0 | 0.00 | 0.21 | 0.21 | 1007.5 | ||
| 20260903011038 | 0 | 0.0 | 0.0 | 0.00 | 0.21 | 0.21 | 1007.6 | ||
| 20260903010533 | 0 | 0.0 | 0.0 | 0.00 | 0.21 | 0.21 | 1007.6 | ||
| 20260903010031 | 0 | 0.0 | 0.0 | 0.00 | 0.21 | 0.21 | 1007.5 | ||
| 20260903005531 | 0 | 0.0 | 0.0 | 0.00 | 0.21 | 0.21 | 1007.4 | ||
| 20260903005027 | 0 | 0.0 | 0.0 | 0.00 | 0.21 | 0.21 | 1007.5 | ||
| 20260903004527 | 0 | 0.0 | 0.0 | 0.00 | 0.21 | 0.21 | 1007.5 | ||
| 20260903004022 | 0 | 0.0 | 0.0 | 0.02 | 0.21 | 0.21 | 1007.5 | ||
| 20260903003518 | 0 | 0.0 | 0.0 | 0.02 | 0.21 | 0.21 | 1007.8 | ||
| 20260903003013 | 0 | 0.0 | 0.0 | 0.09 | 0.20 | 0.20 | 1007.6 | ||
| 20260903002513 | 0 | 0.0 | 0.0 | 0.14 | 0.20 | 0.20 | 1007.8 | ||
| 20260903002007 | 0 | 0.0 | 0.0 | 0.19 | 0.19 | 0.19 | 1007.8 | ||
| 20260903001502 | 0 | 0.0 | 0.0 | 0.21 | 0.18 | 0.18 | 1007.7 | ||
| 20260903000956 | 0 | 0.0 | 0.0 | 0.09 | 0.15 | 0.15 | 1007.6 | ||
| 20260903000454 | 0 | 0.0 | 0.0 | 0.00 | 0.14 | 0.14 | 1007.6 | ||
| 20260902235949 | 0 | 0.0 | 0.0 | 0.00 | 0.14 | 0.14 | 1007.4 | ||
| 20260902235445 | 0 | 0.0 | 0.0 | 0.00 | 0.14 | 0.14 | 1007.4 | ||
| 20260902234944 | 0 | 0.0 | 0.0 | 0.00 | 0.14 | 0.14 | 1007.2 | ||
| 20260902234440 | 0 | 0.0 | 0.0 | 0.00 | 0.14 | 0.14 | 1007.4 | ||
| 20260902233938 | 0 | 0.0 | 0.0 | 0.00 | 0.14 | 0.14 | 1007.0 | ||
| 20260902233433 | 0 | 0.0 | 0.0 | 0.00 | 0.14 | 0.14 | 1006.8 | ||
| 20260902232932 | 0 | 0.0 | 0.0 | 0.00 | 0.14 | 0.14 | 1006.7 | ||
| 20260902232427 | 0 | 0.0 | 0.0 | 0.00 | 0.14 | 0.14 | 1006.9 | ||
| 20260902231927 | 0 | 0.0 | 0.0 | 0.00 | 0.14 | 0.14 | 1006.9 | ||
| 20260902231422 | 0 | 0.0 | 0.0 | 0.00 | 0.14 | 0.14 | 1006.9 | ||
| 20260902230916 | 0 | 0.0 | 0.0 | 0.00 | 0.14 | 0.14 | 1007.0 | ||
| 20260902230416 | 0 | 0.0 | 0.0 | 0.00 | 0.14 | 0.14 | 1006.8 | ||
| 20260902225910 | 0 | 0.0 | 0.0 | 0.00 | 0.14 | 0.14 | 1006.8 | ||
| 20260902225405 | 0 | 0.0 | 0.0 | 0.00 | 0.14 | 0.14 | 1006.9 | ||
| 20260902224903 | 0 | 0.0 | 0.0 | 0.00 | 0.14 | 0.14 | 1006.7 | ||
| 20260902224358 | 0 | 0.0 | 0.0 | 0.00 | 0.14 | 0.14 | 1006.8 | ||
| 20260902223855 | 0 | 0.0 | 0.0 | 0.00 | 0.14 | 0.14 | 1006.8 | ||
| 20260902223355 | 0 | 0.0 | 0.0 | 0.00 | 0.14 | 0.14 | 1006.8 | ||
| 20260902222849 | 0 | 0.0 | 0.0 | 0.00 | 0.14 | 0.14 | 1006.8 | ||
| 20260902222348 | 0 | 0.0 | 0.0 | 0.02 | 0.14 | 0.14 | 1006.5 | ||
| 20260902221842 | 0 | 0.0 | 0.0 | 0.09 | 0.14 | 0.14 | 1006.6 | ||
| 20260902221342 | 0 | 0.0 | 0.0 | 0.17 | 0.13 | 0.13 | 1006.7 | ||
| 20260902220837 | 0 | 0.0 | 0.0 | 0.40 | 0.12 | 0.12 | 1006.6 | ||
| 20260902220337 | 0 | 0.0 | 0.0 | 0.40 | 0.10 | 0.10 | 1006.8 | ||
| 20260902215832 | 0 | 0.0 | 0.0 | 0.09 | 0.05 | 0.05 | 1006.7 | ||
| 20260902215327 | 0 | 0.0 | 0.0 | 0.02 | 0.04 | 0.04 | 1006.7 | ||
| 20260902214823 | 0 | 0.0 | 0.0 | 0.02 | 0.03 | 0.03 | 1006.6 | ||
| 20260902214322 | 0 | 0.0 | 0.0 | 0.02 | 0.03 | 0.03 | 1006.6 | ||
| 20260902213817 | 0 | 0.0 | 0.0 | 0.00 | 0.02 | 0.02 | 1006.6 | ||
| 20260902213313 | 0 | 0.0 | 0.0 | 0.00 | 0.02 | 0.02 | 1006.8 | ||
| 20260902212811 | 0 | 0.0 | 0.0 | 0.05 | 0.02 | 0.02 | 1006.6 | ||
| 20260902212308 | 0 | 0.0 | 0.0 | 0.07 | 0.02 | 0.02 | 1006.9 | ||
| 20260902211804 | 0 | 0.0 | 0.0 | 0.02 | 0.02 | 0.02 | 1007.1 | ||
| 20260902211300 | 0 | 0.0 | 0.0 | 0.02 | 0.01 | 0.01 | 1007.0 | ||
| 20260902210800 | 0 | 0.0 | 0.0 | 0.02 | 0.01 | 0.01 | 1007.2 | ||
| 20260902210254 | 0 | 0.0 | 0.0 | 0.02 | 0.01 | 0.01 | 1007.0 | ||
| 20260902205753 | 0 | 0.0 | 0.0 | 0.02 | 0.01 | 0.01 | 1007.2 | ||
| 20260902205248 | 0 | 0.0 | 0.0 | 0.00 | 0.00 | 0.00 | 1007.5 | ||
| 20260902204743 | 0 | 0.0 | 0.0 | 0.02 | 0.00 | 0.00 | 1007.3 | ||
| 20260902204239 | 0 | 0.0 | 0.0 | 0.02 | 0.00 | 0.00 | 1007.4 | ||
| 20260902203739 | 0 | 0.0 | 0.0 | 0.00 | 0.00 | 0.00 | 1007.4 | ||
| 20260902203233 | 0 | 0.0 | 0.0 | 0.00 | 0.00 | 0.00 | 1007.7 | ||
| 20260902202728 | 0 | 0.0 | 0.0 | 0.00 | 0.00 | 0.00 | 1007.6 | ||
| 20260902202225 | 0 | 0.0 | 0.0 | 0.00 | 0.00 | 0.00 | 1007.6 | ||
| 20260902201721 | 0 | 0.0 | 0.0 | 0.00 | 0.00 | 0.00 | 1007.7 | ||
| 20260902201220 | 0 | 0.0 | 0.0 | 0.00 | 0.00 | 0.00 | 1007.7 | ||
| 20260902200715 | 0 | 0.0 | 0.0 | 0.00 | 0.00 | 0.00 | 1007.4 | ||
| 20260902200211 | 0 | 0.0 | 0.0 | 0.00 | 0.00 | 0.00 | 1007.5 | ||
| 20260902195706 | 0 | 0.0 | 0.0 | 0.00 | 0.00 | 0.00 | 1007.5 | ||
| 20260902195205 | 0 | 0.0 | 0.0 | 0.00 | 0.00 | 0.00 | 1007.3 | ||
| 20260902194704 | 0 | 0.0 | 0.0 | 0.00 | 0.00 | 0.00 | 1007.3 | ||
| 20260902194200 | 0 | 0.0 | 0.0 | 0.00 | 0.00 | 0.00 | 1007.3 | ||
| 20260902193655 | 0 | 0.0 | 0.0 | 0.00 | 0.00 | 0.00 | 1007.4 | ||
| 20260902193151 | 0 | 0.0 | 0.0 | 0.00 | 0.00 | 0.00 | 1007.5 | ||
| 20260902192649 | 0 | 0.0 | 0.0 | 0.00 | 0.00 | 0.00 | 1007.4 | ||
| 20260902192148 | 0 | 0.0 | 0.0 | 0.00 | 0.00 | 0.00 | 1007.7 | ||
| 20260902191643 | 0 | 0.0 | 0.0 | 0.00 | 0.00 | 0.00 | 1007.6 | ||
| 20260902191137 | 0 | 0.0 | 0.0 | 0.00 | 0.00 | 0.00 | 1007.5 | ||
| 20260902190633 | 0 | 0.0 | 0.0 | 0.00 | 0.00 | 0.00 | 1007.7 | ||
| 20260902190128 | 0 | 0.0 | 0.0 | 0.00 | 0.00 | 0.00 | 1007.6 | ||
| 20260902185624 | 0 | 0.0 | 0.0 | 0.00 | 0.00 | 0.00 | 1007.7 | ||
| 20260902185120 | 0 | 0.0 | 0.0 | 0.00 | 0.00 | 0.00 | 1007.7 | ||
| 20260902184614 | 0 | 0.0 | 0.0 | 0.00 | 0.00 | 0.00 | 1007.7 | ||
| 20260902184110 | 0 | 0.0 | 0.0 | 0.00 | 0.00 | 0.00 | 1007.8 | ||
| 20260902183606 | 0 | 0.0 | 0.0 | 0.00 | 0.00 | 0.00 | 1007.9 | ||
| 20260902183102 | 0 | 0.0 | 0.0 | 0.00 | 0.00 | 0.00 | 1007.8 | ||
| 20260902182558 | 0 | 0.0 | 0.0 | 0.00 | 0.00 | 0.00 | 1007.7 | ||
| 20260902182054 | 0 | 0.0 | 0.0 | 0.00 | 0.00 | 0.00 | 1007.9 | ||
| 20260902181550 | 0 | 0.0 | 0.0 | 0.00 | 0.00 | 0.00 | 1007.8 | ||
| 20260902181044 | 0 | 0.0 | 0.0 | 0.00 | 0.00 | 0.00 | 1007.8 | ||
| 20260902180538 | 0 | 0.0 | 0.0 | 0.00 | 0.00 | 0.00 | 1008.0 | ||
| 20260902180035 | 0 | 0.0 | 0.0 | 0.00 | 0.00 | 0.00 | 1007.9 | ||
| 20260902175534 | 0 | 0.0 | 0.0 | 0.00 | 0.00 | 0.00 | 1008.0 | ||
| 20260902175030 | 0 | 0.0 | 0.0 | 0.00 | 0.00 | 0.00 | 1007.9 | ||
| 20260902174526 | 0 | 0.0 | 0.0 | 0.00 | 0.00 | 0.00 | 1008.1 | ||
| 20260902174022 | 0 | 0.0 | 0.0 | 0.00 | 0.00 | 0.00 | 1007.9 | ||
| 20260902173522 | 0 | 0.0 | 0.0 | 0.00 | 0.00 | 0.00 | 1008.0 | ||
| 20260902173022 | 0 | 0.0 | 0.0 | 0.00 | 0.00 | 0.00 | 1008.3 | ||
| 20260902172521 | 0 | 0.0 | 0.0 | 0.00 | 0.00 | 0.00 | 1008.2 | ||
| 20260902172016 | 0 | 0.0 | 0.0 | 0.00 | 0.00 | 0.00 | 1008.4 | ||
| 20260902171512 | 0 | 0.0 | 0.0 | 0.00 | 0.00 | 0.00 | 1008.1 | ||
| 20260902171008 | 0 | 0.0 | 0.0 | 0.00 | 0.00 | 0.00 | 1008.4 | ||
| 20260902170503 | 0 | 0.0 | 0.0 | 0.00 | 0.00 | 0.00 | 1008.4 | ||
| 20260902165958 | 0 | 0.0 | 0.0 | 0.00 | 0.00 | 0.00 | 1008.4 | ||
| 20260902165457 | 0 | 0.0 | 0.0 | 0.00 | 0.00 | 0.00 | 1008.4 | ||
| 20260902164952 | 0 | 0.0 | 0.0 | 0.00 | 0.00 | 0.00 | 1008.6 | ||
| 20260902164447 | 0 | 0.0 | 0.0 | 0.00 | 0.00 | 0.00 | 1008.5 | ||
| 20260902163946 | 0 | 0.0 | 0.0 | 0.00 | 0.00 | 0.00 | 1008.5 | ||
| 20260902163442 | 0 | 0.0 | 0.0 | 0.00 | 0.00 | 0.00 | 1008.4 | ||
| 20260902162939 | 0 | 0.0 | 0.0 | 0.00 | 0.00 | 0.00 | 1008.6 | ||
| 20260902162434 | 0 | 0.0 | 0.0 | 0.00 | 0.00 | 0.00 | 1008.7 | ||
| 20260902161929 | 0 | 0.0 | 0.0 | 0.00 | 0.00 | 0.00 | 1008.8 | ||
| 20260902161424 | 0 | 0.0 | 0.0 | 0.00 | 0.00 | 0.00 | 1008.7 | ||
| 20260902160920 | 0 | 0.0 | 0.0 | 0.00 | 0.00 | 0.00 | 1008.7 | ||
| 20260902160415 | 0 | 0.0 | 0.0 | 0.00 | 0.00 | 0.00 | 1008.8 | ||
| 20260902155913 | 0 | 0.0 | 0.0 | 0.00 | 0.00 | 0.00 | 1009.0 | ||
| 20260902155409 | 0 | 0.0 | 0.0 | 0.00 | 0.00 | 0.00 | 1008.9 | ||
| 20260902154903 | 0 | 0.0 | 0.0 | 0.00 | 0.00 | 0.00 | 1009.0 | ||
| 20260902154359 | 0 | 0.0 | 0.0 | 0.00 | 0.00 | 0.00 | 1009.0 | ||
| 20260902153857 | 0 | 0.0 | 0.0 | 0.00 | 0.00 | 0.00 | 1009.1 | ||
| 20260902153356 | 0 | 0.0 | 0.0 | 0.00 | 0.00 | 0.00 | 1009.1 | ||
| 20260902152852 | 0 | 0.0 | 0.0 | 0.00 | 0.00 | 0.00 | 1009.2 | ||
| 20260902152348 | 0 | 0.0 | 0.0 | 0.00 | 0.00 | 0.00 | 1009.3 | ||
| 20260902151843 | 0 | 0.0 | 0.0 | 0.00 | 0.00 | 0.00 | 1009.3 | ||
| 20260902151338 | 0 | 0.0 | 0.0 | 0.00 | 0.00 | 0.00 | 1009.4 | ||
| 20260902150833 | 0 | 0.0 | 0.0 | 0.00 | 0.00 | 0.00 | 1009.5 | ||
| 20260902150329 | 0 | 0.0 | 0.0 | 0.00 | 0.00 | 0.00 | 1009.6 | ||
| 20260902145829 | 0 | 0.0 | 0.0 | 0.00 | 0.00 | 0.00 | 1009.7 | ||
| 20260902145324 | 0 | 0.0 | 0.0 | 0.00 | 0.00 | 0.00 | 1009.6 | ||
| 20260902144819 | 0 | 0.0 | 0.0 | 0.00 | 0.00 | 0.00 | 1009.6 |